Skip Navigation Links
NOAA logo - Click to go to the NOAA homepage
NOAA's National Weather Service
Alaska Aviation Weather Unit
  NWS logo - Click to go to the NWS homepage
Left Navbar Graphic     22 AKDT = 06 GMT

   
NOAA is celebrating 200 years of science, service, and stewardship. Visit the NOAA 200th celebration Web site to learn more.
USA.gov is the U.S. Government's official Web portal to all Federal, state and local government Web resources and services.
Facebook
NWS on Facebook

Important Change Regarding the AAWU Web Presence

 

Over the last several months, the AAWU has been working to navigate its webpages to a nationally supported server. Security, as well as other needs, have necessitated the change.  We have been given an extension for the site changeover while we diligently work at addressing feedback received. As of July 14, 2017, aawu.arh.noaa.gov will be discontinued. The new AAWU web address is weather.gov/aawu. It is now live and will run in-parallel with the old site until it is discontinued on July 14, 2017. Please continue to send any feedback or questions regarding the new webpages to nws.ar.aawu.webauthors@noaa.gov.  Thank you for your patience during this time of transition.
AAWU Home :: Display TAF Add Bookmark
TAF CYOC 251738Z 2518/2601 25010G20KT P6SM FEW015 BKN020 BKN040 TEMPO
     2518/2521 SCT020 BKN040
    FM252100 25010G20KT P6SM SCT020 BKN040
    RMK NXT FCST WILL BE ISSUED AT 261445Z=

METAR CYOC 260000Z 07011G17KT 030V090 35SM FEW020 SCT035 BKN090 16/09 A2992 RMK CU1SC3AC4 CU TR SLP141 DENSITY ALT 1100FT= METAR CYOC 260100Z 06011G16KT 35SM FEW020 SCT035 BKN075 BKN090 15/08 A2993 RMK CU1SC3AC2AC2 CU TR CLIMAT 19.2/14.1/0.0MM LAST STFD OBS/NXT 261300Z SLP144 DENSITY ALT 1000FT=
 Alaska TAF Map

NOAA's National Weather Service
Alaska Aviation Weather Unit
6930 Sand Lake Road
Anchorage, AK 99502-1845
Disclaimer
Credits
Glossary
Privacy Policy
About Us
Career Opportunities
Contact AAWU Internet Services Site last modified: April, 17th 2012